sensor_id;sensor_type;location;lat;lon;timestamp;P1;durP1;ratioP1;P2;durP2;ratioP2
84866;SDS011;75123;51.788;4.654;2024-03-02T00:01:11;0.98;;;0.94;;
84866;SDS011;75123;51.788;4.654;2024-03-02T00:03:37;0.93;;;0.91;;
84866;SDS011;75123;51.788;4.654;2024-03-02T00:06:03;0.92;;;0.90;;
84866;SDS011;75123;51.788;4.654;2024-03-02T00:08:29;0.88;;;0.87;;
84866;SDS011;75123;51.788;4.654;2024-03-02T00:10:58;0.95;;;0.94;;
84866;SDS011;75123;51.788;4.654;2024-03-02T00:13:24;0.99;;;0.98;;
84866;SDS011;75123;51.788;4.654;2024-03-02T00:15:53;0.87;;;0.86;;
84866;SDS011;75123;51.788;4.654;2024-03-02T00:18:23;1.14;;;1.13;;
84866;SDS011;75123;51.788;4.654;2024-03-02T00:20:55;0.93;;;0.92;;
84866;SDS011;75123;51.788;4.654;2024-03-02T00:23:22;0.87;;;0.86;;
84866;SDS011;75123;51.788;4.654;2024-03-02T00:25:49;0.90;;;0.90;;
84866;SDS011;75123;51.788;4.654;2024-03-02T00:30:56;0.90;;;0.89;;
84866;SDS011;75123;51.788;4.654;2024-03-02T00:36:09;1.22;;;1.22;;
84866;SDS011;75123;51.788;4.654;2024-03-02T00:38:44;1.08;;;1.08;;
84866;SDS011;75123;51.788;4.654;2024-03-02T00:41:15;1.24;;;1.24;;
84866;SDS011;75123;51.788;4.654;2024-03-02T00:43:59;1.06;;;1.06;;
84866;SDS011;75123;51.788;4.654;2024-03-02T00:46:32;1.13;;;1.13;;
84866;SDS011;75123;51.788;4.654;2024-03-02T00:48:59;0.92;;;0.92;;
84866;SDS011;75123;51.788;4.654;2024-03-02T00:51:27;0.99;;;0.99;;
84866;SDS011;75123;51.788;4.654;2024-03-02T00:53:54;1.10;;;1.10;;
84866;SDS011;75123;51.788;4.654;2024-03-02T00:56:22;1.07;;;1.07;;
84866;SDS011;75123;51.788;4.654;2024-03-02T00:58:48;1.24;;;1.24;;
84866;SDS011;75123;51.788;4.654;2024-03-02T01:01:13;0.90;;;0.90;;
84866;SDS011;75123;51.788;4.654;2024-03-02T01:03:39;1.00;;;1.00;;
84866;SDS011;75123;51.788;4.654;2024-03-02T01:06:06;1.17;;;1.17;;
84866;SDS011;75123;51.788;4.654;2024-03-02T01:08:32;1.22;;;1.22;;
84866;SDS011;75123;51.788;4.654;2024-03-02T01:10:59;1.16;;;1.16;;
84866;SDS011;75123;51.788;4.654;2024-03-02T01:13:24;1.04;;;1.04;;
84866;SDS011;75123;51.788;4.654;2024-03-02T01:15:50;1.14;;;1.14;;
84866;SDS011;75123;51.788;4.654;2024-03-02T01:18:15;1.11;;;1.11;;
84866;SDS011;75123;51.788;4.654;2024-03-02T01:20:41;1.03;;;1.03;;
84866;SDS011;75123;51.788;4.654;2024-03-02T01:23:06;0.91;;;0.91;;
84866;SDS011;75123;51.788;4.654;2024-03-02T01:25:32;0.81;;;0.81;;
84866;SDS011;75123;51.788;4.654;2024-03-02T01:27:57;0.75;;;0.75;;
84866;SDS011;75123;51.788;4.654;2024-03-02T01:30:23;0.86;;;0.86;;
84866;SDS011;75123;51.788;4.654;2024-03-02T01:32:48;0.86;;;0.86;;
84866;SDS011;75123;51.788;4.654;2024-03-02T01:35:14;0.94;;;0.94;;
84866;SDS011;75123;51.788;4.654;2024-03-02T01:37:40;0.81;;;0.81;;
84866;SDS011;75123;51.788;4.654;2024-03-02T01:40:06;0.76;;;0.76;;
84866;SDS011;75123;51.788;4.654;2024-03-02T01:42:37;0.70;;;0.70;;
84866;SDS011;75123;51.788;4.654;2024-03-02T01:45:07;0.97;;;0.96;;
84866;SDS011;75123;51.788;4.654;2024-03-02T01:47:33;0.64;;;0.64;;
84866;SDS011;75123;51.788;4.654;2024-03-02T01:49:59;0.74;;;0.74;;
84866;SDS011;75123;51.788;4.654;2024-03-02T01:52:24;0.82;;;0.81;;
84866;SDS011;75123;51.788;4.654;2024-03-02T01:54:50;0.84;;;0.83;;
84866;SDS011;75123;51.788;4.654;2024-03-02T01:57:16;0.74;;;0.74;;
84866;SDS011;75123;51.788;4.654;2024-03-02T01:59:42;0.73;;;0.73;;
84866;SDS011;75123;51.788;4.654;2024-03-02T02:02:07;0.94;;;0.93;;
84866;SDS011;75123;51.788;4.654;2024-03-02T02:04:33;0.86;;;0.86;;
84866;SDS011;75123;51.788;4.654;2024-03-02T02:06:59;0.89;;;0.88;;
84866;SDS011;75123;51.788;4.654;2024-03-02T02:09:24;0.91;;;0.90;;
84866;SDS011;75123;51.788;4.654;2024-03-02T02:11:50;0.90;;;0.89;;
84866;SDS011;75123;51.788;4.654;2024-03-02T02:14:16;0.89;;;0.88;;
84866;SDS011;75123;51.788;4.654;2024-03-02T02:16:42;0.90;;;0.89;;
84866;SDS011;75123;51.788;4.654;2024-03-02T02:19:07;0.89;;;0.89;;
84866;SDS011;75123;51.788;4.654;2024-03-02T02:21:33;0.99;;;0.98;;
84866;SDS011;75123;51.788;4.654;2024-03-02T02:23:58;1.06;;;1.06;;
84866;SDS011;75123;51.788;4.654;2024-03-02T02:26:24;0.99;;;0.99;;
84866;SDS011;75123;51.788;4.654;2024-03-02T02:28:50;1.05;;;1.05;;
84866;SDS011;75123;51.788;4.654;2024-03-02T02:31:15;1.15;;;1.15;;
84866;SDS011;75123;51.788;4.654;2024-03-02T02:33:41;0.98;;;0.98;;
84866;SDS011;75123;51.788;4.654;2024-03-02T02:36:08;1.14;;;1.14;;
84866;SDS011;75123;51.788;4.654;2024-03-02T02:38:40;1.06;;;1.06;;
84866;SDS011;75123;51.788;4.654;2024-03-02T02:41:09;1.23;;;1.23;;
84866;SDS011;75123;51.788;4.654;2024-03-02T02:43:35;1.08;;;1.08;;
84866;SDS011;75123;51.788;4.654;2024-03-02T02:46:00;0.97;;;0.97;;
84866;SDS011;75123;51.788;4.654;2024-03-02T02:48:26;0.89;;;0.89;;
84866;SDS011;75123;51.788;4.654;2024-03-02T02:50:51;1.11;;;1.11;;
84866;SDS011;75123;51.788;4.654;2024-03-02T02:53:16;1.03;;;1.03;;
84866;SDS011;75123;51.788;4.654;2024-03-02T02:55:42;1.15;;;1.15;;
84866;SDS011;75123;51.788;4.654;2024-03-02T02:58:11;1.01;;;1.01;;
84866;SDS011;75123;51.788;4.654;2024-03-02T03:00:36;1.03;;;1.03;;
84866;SDS011;75123;51.788;4.654;2024-03-02T03:03:02;0.94;;;0.94;;
84866;SDS011;75123;51.788;4.654;2024-03-02T03:05:28;0.93;;;0.93;;
84866;SDS011;75123;51.788;4.654;2024-03-02T03:07:53;0.99;;;0.99;;
84866;SDS011;75123;51.788;4.654;2024-03-02T03:10:19;0.94;;;0.94;;
84866;SDS011;75123;51.788;4.654;2024-03-02T03:12:47;0.99;;;0.99;;
84866;SDS011;75123;51.788;4.654;2024-03-02T03:15:12;0.88;;;0.88;;
84866;SDS011;75123;51.788;4.654;2024-03-02T03:17:39;0.98;;;0.98;;
84866;SDS011;75123;51.788;4.654;2024-03-02T03:20:04;0.95;;;0.95;;
84866;SDS011;75123;51.788;4.654;2024-03-02T03:22:30;0.85;;;0.85;;
84866;SDS011;75123;51.788;4.654;2024-03-02T03:24:57;0.79;;;0.79;;
84866;SDS011;75123;51.788;4.654;2024-03-02T03:27:22;0.89;;;0.89;;
84866;SDS011;75123;51.788;4.654;2024-03-02T03:29:48;0.88;;;0.88;;
84866;SDS011;75123;51.788;4.654;2024-03-02T03:32:13;1.00;;;0.99;;
84866;SDS011;75123;51.788;4.654;2024-03-02T03:34:39;0.90;;;0.90;;
84866;SDS011;75123;51.788;4.654;2024-03-02T03:37:05;0.68;;;0.68;;
84866;SDS011;75123;51.788;4.654;2024-03-02T03:39:30;0.79;;;0.79;;
84866;SDS011;75123;51.788;4.654;2024-03-02T03:41:56;0.81;;;0.81;;
84866;SDS011;75123;51.788;4.654;2024-03-02T03:44:21;0.87;;;0.87;;
84866;SDS011;75123;51.788;4.654;2024-03-02T03:46:47;0.91;;;0.91;;
84866;SDS011;75123;51.788;4.654;2024-03-02T03:49:12;0.90;;;0.90;;
84866;SDS011;75123;51.788;4.654;2024-03-02T03:51:38;0.90;;;0.90;;
84866;SDS011;75123;51.788;4.654;2024-03-02T03:54:03;0.80;;;0.80;;
84866;SDS011;75123;51.788;4.654;2024-03-02T03:56:29;0.77;;;0.77;;
84866;SDS011;75123;51.788;4.654;2024-03-02T03:58:54;0.93;;;0.93;;
84866;SDS011;75123;51.788;4.654;2024-03-02T04:01:20;0.75;;;0.75;;
84866;SDS011;75123;51.788;4.654;2024-03-02T04:03:47;0.79;;;0.79;;
84866;SDS011;75123;51.788;4.654;2024-03-02T04:06:13;0.92;;;0.92;;
84866;SDS011;75123;51.788;4.654;2024-03-02T04:08:39;0.83;;;0.83;;
84866;SDS011;75123;51.788;4.654;2024-03-02T04:11:06;0.79;;;0.79;;
84866;SDS011;75123;51.788;4.654;2024-03-02T04:13:32;0.85;;;0.84;;
84866;SDS011;75123;51.788;4.654;2024-03-02T04:15:58;0.93;;;0.93;;
84866;SDS011;75123;51.788;4.654;2024-03-02T04:18:23;0.82;;;0.82;;
84866;SDS011;75123;51.788;4.654;2024-03-02T04:20:49;0.91;;;0.91;;
84866;SDS011;75123;51.788;4.654;2024-03-02T04:23:14;1.03;;;1.02;;
84866;SDS011;75123;51.788;4.654;2024-03-02T04:25:40;1.01;;;1.00;;
84866;SDS011;75123;51.788;4.654;2024-03-02T04:28:05;0.92;;;0.92;;
84866;SDS011;75123;51.788;4.654;2024-03-02T04:30:31;0.98;;;0.98;;
84866;SDS011;75123;51.788;4.654;2024-03-02T04:32:56;1.02;;;1.02;;
84866;SDS011;75123;51.788;4.654;2024-03-02T04:35:22;1.23;;;1.23;;
84866;SDS011;75123;51.788;4.654;2024-03-02T04:37:47;1.17;;;1.16;;
84866;SDS011;75123;51.788;4.654;2024-03-02T04:40:13;1.01;;;0.99;;
84866;SDS011;75123;51.788;4.654;2024-03-02T04:42:38;1.01;;;0.99;;
84866;SDS011;75123;51.788;4.654;2024-03-02T04:45:03;1.31;;;1.28;;
84866;SDS011;75123;51.788;4.654;2024-03-02T04:47:29;1.11;;;1.08;;
84866;SDS011;75123;51.788;4.654;2024-03-02T04:49:55;1.07;;;1.04;;
84866;SDS011;75123;51.788;4.654;2024-03-02T04:52:20;1.15;;;1.12;;
84866;SDS011;75123;51.788;4.654;2024-03-02T04:54:45;1.06;;;1.03;;
84866;SDS011;75123;51.788;4.654;2024-03-02T04:57:30;1.20;;;1.16;;
84866;SDS011;75123;51.788;4.654;2024-03-02T04:59:55;0.99;;;0.96;;
84866;SDS011;75123;51.788;4.654;2024-03-02T05:02:21;1.13;;;1.09;;
84866;SDS011;75123;51.788;4.654;2024-03-02T05:04:46;1.12;;;1.06;;
84866;SDS011;75123;51.788;4.654;2024-03-02T05:07:13;1.16;;;1.10;;
84866;SDS011;75123;51.788;4.654;2024-03-02T05:09:39;1.07;;;1.01;;
84866;SDS011;75123;51.788;4.654;2024-03-02T05:12:05;1.09;;;1.03;;
84866;SDS011;75123;51.788;4.654;2024-03-02T05:14:49;1.08;;;1.02;;
84866;SDS011;75123;51.788;4.654;2024-03-02T05:17:14;1.06;;;1.01;;
84866;SDS011;75123;51.788;4.654;2024-03-02T05:19:40;1.10;;;1.04;;
84866;SDS011;75123;51.788;4.654;2024-03-02T05:22:05;1.11;;;1.04;;
84866;SDS011;75123;51.788;4.654;2024-03-02T05:24:31;1.14;;;1.08;;
84866;SDS011;75123;51.788;4.654;2024-03-02T05:26:56;0.91;;;0.86;;
84866;SDS011;75123;51.788;4.654;2024-03-02T05:29:22;1.14;;;1.08;;
84866;SDS011;75123;51.788;4.654;2024-03-02T05:31:48;1.26;;;1.18;;
84866;SDS011;75123;51.788;4.654;2024-03-02T05:34:13;1.53;;;1.40;;
84866;SDS011;75123;51.788;4.654;2024-03-02T05:36:39;1.29;;;1.17;;
84866;SDS011;75123;51.788;4.654;2024-03-02T05:39:04;1.26;;;1.13;;
84866;SDS011;75123;51.788;4.654;2024-03-02T05:41:34;1.29;;;1.16;;
84866;SDS011;75123;51.788;4.654;2024-03-02T05:43:59;1.37;;;1.24;;
84866;SDS011;75123;51.788;4.654;2024-03-02T05:46:25;1.16;;;1.04;;
84866;SDS011;75123;51.788;4.654;2024-03-02T05:48:50;1.32;;;1.19;;
84866;SDS011;75123;51.788;4.654;2024-03-02T05:51:16;1.23;;;1.11;;
84866;SDS011;75123;51.788;4.654;2024-03-02T05:53:41;1.34;;;1.21;;
84866;SDS011;75123;51.788;4.654;2024-03-02T05:56:07;1.20;;;1.09;;
84866;SDS011;75123;51.788;4.654;2024-03-02T05:58:33;1.22;;;1.10;;
84866;SDS011;75123;51.788;4.654;2024-03-02T06:01:16;1.28;;;1.16;;
84866;SDS011;75123;51.788;4.654;2024-03-02T06:03:43;1.11;;;1.01;;
84866;SDS011;75123;51.788;4.654;2024-03-02T06:06:08;1.03;;;0.94;;
84866;SDS011;75123;51.788;4.654;2024-03-02T06:08:34;1.13;;;1.03;;
84866;SDS011;75123;51.788;4.654;2024-03-02T06:11:00;1.32;;;1.18;;
84866;SDS011;75123;51.788;4.654;2024-03-02T06:13:25;1.18;;;1.05;;
84866;SDS011;75123;51.788;4.654;2024-03-02T06:15:51;1.28;;;1.16;;
84866;SDS011;75123;51.788;4.654;2024-03-02T06:18:17;1.20;;;1.09;;
84866;SDS011;75123;51.788;4.654;2024-03-02T06:20:43;1.44;;;1.30;;
84866;SDS011;75123;51.788;4.654;2024-03-02T06:23:08;1.18;;;1.07;;
84866;SDS011;75123;51.788;4.654;2024-03-02T06:25:34;1.43;;;1.29;;
84866;SDS011;75123;51.788;4.654;2024-03-02T06:27:59;1.48;;;1.35;;
84866;SDS011;75123;51.788;4.654;2024-03-02T06:30:25;1.52;;;1.38;;
84866;SDS011;75123;51.788;4.654;2024-03-02T06:32:51;1.28;;;1.16;;
84866;SDS011;75123;51.788;4.654;2024-03-02T06:35:16;1.28;;;1.14;;
84866;SDS011;75123;51.788;4.654;2024-03-02T06:37:42;1.30;;;1.15;;
84866;SDS011;75123;51.788;4.654;2024-03-02T06:40:07;1.41;;;1.26;;
84866;SDS011;75123;51.788;4.654;2024-03-02T06:42:33;1.39;;;1.24;;
84866;SDS011;75123;51.788;4.654;2024-03-02T06:44:59;1.24;;;1.10;;
84866;SDS011;75123;51.788;4.654;2024-03-02T06:47:25;1.64;;;1.46;;
84866;SDS011;75123;51.788;4.654;2024-03-02T06:49:50;1.79;;;1.56;;
84866;SDS011;75123;51.788;4.654;2024-03-02T06:52:16;1.52;;;1.32;;
84866;SDS011;75123;51.788;4.654;2024-03-02T06:54:41;1.73;;;1.51;;
84866;SDS011;75123;51.788;4.654;2024-03-02T06:57:07;1.52;;;1.33;;
84866;SDS011;75123;51.788;4.654;2024-03-02T06:59:32;1.49;;;1.32;;
84866;SDS011;75123;51.788;4.654;2024-03-02T07:01:58;1.67;;;1.49;;
84866;SDS011;75123;51.788;4.654;2024-03-02T07:04:24;1.44;;;1.30;;
84866;SDS011;75123;51.788;4.654;2024-03-02T07:06:49;1.40;;;1.28;;
84866;SDS011;75123;51.788;4.654;2024-03-02T07:09:17;1.40;;;1.28;;
84866;SDS011;75123;51.788;4.654;2024-03-02T07:11:42;1.63;;;1.50;;
84866;SDS011;75123;51.788;4.654;2024-03-02T07:14:08;1.40;;;1.29;;
84866;SDS011;75123;51.788;4.654;2024-03-02T07:16:33;1.30;;;1.20;;
84866;SDS011;75123;51.788;4.654;2024-03-02T07:18:59;1.43;;;1.30;;
84866;SDS011;75123;51.788;4.654;2024-03-02T07:21:27;1.76;;;1.58;;
84866;SDS011;75123;51.788;4.654;2024-03-02T07:23:52;1.49;;;1.33;;
84866;SDS011;75123;51.788;4.654;2024-03-02T07:26:18;1.62;;;1.43;;
84866;SDS011;75123;51.788;4.654;2024-03-02T07:28:44;1.48;;;1.32;;
84866;SDS011;75123;51.788;4.654;2024-03-02T07:31:11;1.43;;;1.29;;
84866;SDS011;75123;51.788;4.654;2024-03-02T07:33:36;1.38;;;1.24;;
84866;SDS011;75123;51.788;4.654;2024-03-02T07:36:02;1.86;;;1.67;;
84866;SDS011;75123;51.788;4.654;2024-03-02T07:38:28;1.39;;;1.24;;
84866;SDS011;75123;51.788;4.654;2024-03-02T07:40:54;1.41;;;1.25;;
84866;SDS011;75123;51.788;4.654;2024-03-02T07:43:20;1.47;;;1.31;;
84866;SDS011;75123;51.788;4.654;2024-03-02T07:45:47;1.87;;;1.67;;
84866;SDS011;75123;51.788;4.654;2024-03-02T07:48:13;1.69;;;1.52;;
84866;SDS011;75123;51.788;4.654;2024-03-02T07:50:39;1.46;;;1.31;;
84866;SDS011;75123;51.788;4.654;2024-03-02T07:53:05;1.71;;;1.53;;
84866;SDS011;75123;51.788;4.654;2024-03-02T07:55:31;1.63;;;1.46;;
84866;SDS011;75123;51.788;4.654;2024-03-02T07:57:56;1.57;;;1.44;;
84866;SDS011;75123;51.788;4.654;2024-03-02T08:00:22;1.49;;;1.38;;
84866;SDS011;75123;51.788;4.654;2024-03-02T08:02:49;1.73;;;1.60;;
84866;SDS011;75123;51.788;4.654;2024-03-02T08:05:16;1.63;;;1.50;;
84866;SDS011;75123;51.788;4.654;2024-03-02T08:07:41;1.39;;;1.28;;
84866;SDS011;75123;51.788;4.654;2024-03-02T08:10:09;1.72;;;1.60;;
84866;SDS011;75123;51.788;4.654;2024-03-02T08:12:34;1.81;;;1.67;;
84866;SDS011;75123;51.788;4.654;2024-03-02T08:15:00;1.59;;;1.45;;
84866;SDS011;75123;51.788;4.654;2024-03-02T08:17:25;1.56;;;1.43;;
84866;SDS011;75123;51.788;4.654;2024-03-02T08:19:51;1.37;;;1.26;;
84866;SDS011;75123;51.788;4.654;2024-03-02T08:22:16;1.35;;;1.26;;
84866;SDS011;75123;51.788;4.654;2024-03-02T08:24:42;1.52;;;1.41;;
84866;SDS011;75123;51.788;4.654;2024-03-02T08:27:08;1.49;;;1.35;;
84866;SDS011;75123;51.788;4.654;2024-03-02T08:29:34;1.62;;;1.43;;
84866;SDS011;75123;51.788;4.654;2024-03-02T08:32:00;1.73;;;1.50;;
84866;SDS011;75123;51.788;4.654;2024-03-02T08:34:25;1.79;;;1.55;;
84866;SDS011;75123;51.788;4.654;2024-03-02T08:36:51;1.71;;;1.48;;
84866;SDS011;75123;51.788;4.654;2024-03-02T08:39:16;1.91;;;1.63;;
84866;SDS011;75123;51.788;4.654;2024-03-02T08:41:44;1.84;;;1.54;;
84866;SDS011;75123;51.788;4.654;2024-03-02T08:44:09;1.86;;;1.54;;
84866;SDS011;75123;51.788;4.654;2024-03-02T08:46:35;1.68;;;1.39;;
84866;SDS011;75123;51.788;4.654;2024-03-02T08:49:01;1.77;;;1.46;;
84866;SDS011;75123;51.788;4.654;2024-03-02T08:51:27;2.05;;;1.69;;
84866;SDS011;75123;51.788;4.654;2024-03-02T08:53:52;2.07;;;1.70;;
84866;SDS011;75123;51.788;4.654;2024-03-02T08:56:18;2.19;;;1.78;;
84866;SDS011;75123;51.788;4.654;2024-03-02T08:58:45;2.22;;;1.76;;
84866;SDS011;75123;51.788;4.654;2024-03-02T09:01:11;2.04;;;1.61;;
84866;SDS011;75123;51.788;4.654;2024-03-02T09:03:39;2.38;;;1.84;;
84866;SDS011;75123;51.788;4.654;2024-03-02T09:06:05;2.21;;;1.68;;
84866;SDS011;75123;51.788;4.654;2024-03-02T09:08:30;2.40;;;1.83;;
84866;SDS011;75123;51.788;4.654;2024-03-02T09:10:56;2.49;;;1.96;;
84866;SDS011;75123;51.788;4.654;2024-03-02T09:13:21;2.22;;;1.72;;
84866;SDS011;75123;51.788;4.654;2024-03-02T09:15:47;2.46;;;1.89;;
84866;SDS011;75123;51.788;4.654;2024-03-02T09:18:13;2.06;;;1.58;;
84866;SDS011;75123;51.788;4.654;2024-03-02T09:20:38;2.27;;;1.70;;
84866;SDS011;75123;51.788;4.654;2024-03-02T09:23:04;2.33;;;1.74;;
84866;SDS011;75123;51.788;4.654;2024-03-02T09:25:29;2.73;;;2.05;;
84866;SDS011;75123;51.788;4.654;2024-03-02T09:27:55;2.73;;;2.04;;
84866;SDS011;75123;51.788;4.654;2024-03-02T09:30:20;2.37;;;1.76;;
84866;SDS011;75123;51.788;4.654;2024-03-02T09:32:45;2.62;;;1.99;;
84866;SDS011;75123;51.788;4.654;2024-03-02T09:35:11;2.29;;;1.76;;
84866;SDS011;75123;51.788;4.654;2024-03-02T09:37:37;2.17;;;1.66;;
84866;SDS011;75123;51.788;4.654;2024-03-02T09:40:03;2.99;;;2.25;;
84866;SDS011;75123;51.788;4.654;2024-03-02T09:42:29;2.70;;;2.03;;
84866;SDS011;75123;51.788;4.654;2024-03-02T09:44:55;2.33;;;1.76;;
84866;SDS011;75123;51.788;4.654;2024-03-02T09:47:22;2.80;;;2.12;;
84866;SDS011;75123;51.788;4.654;2024-03-02T09:49:47;2.61;;;1.97;;
84866;SDS011;75123;51.788;4.654;2024-03-02T09:52:13;2.39;;;1.83;;
84866;SDS011;75123;51.788;4.654;2024-03-02T09:54:39;2.74;;;2.11;;
84866;SDS011;75123;51.788;4.654;2024-03-02T09:57:05;2.57;;;2.02;;
84866;SDS011;75123;51.788;4.654;2024-03-02T09:59:30;2.55;;;2.08;;
84866;SDS011;75123;51.788;4.654;2024-03-02T10:01:56;2.16;;;1.72;;
84866;SDS011;75123;51.788;4.654;2024-03-02T10:04:26;2.47;;;1.96;;
84866;SDS011;75123;51.788;4.654;2024-03-02T10:07:09;2.53;;;2.02;;
84866;SDS011;75123;51.788;4.654;2024-03-02T10:09:39;2.62;;;2.13;;
84866;SDS011;75123;51.788;4.654;2024-03-02T10:12:06;2.37;;;1.97;;
84866;SDS011;75123;51.788;4.654;2024-03-02T10:14:33;2.31;;;1.92;;
84866;SDS011;75123;51.788;4.654;2024-03-02T10:17:06;2.44;;;2.06;;
84866;SDS011;75123;51.788;4.654;2024-03-02T10:19:32;2.03;;;1.72;;
84866;SDS011;75123;51.788;4.654;2024-03-02T10:22:00;2.01;;;1.70;;
84866;SDS011;75123;51.788;4.654;2024-03-02T10:24:27;2.18;;;1.85;;
84866;SDS011;75123;51.788;4.654;2024-03-02T10:27:02;2.29;;;1.90;;
84866;SDS011;75123;51.788;4.654;2024-03-02T10:29:32;2.54;;;2.09;;
84866;SDS011;75123;51.788;4.654;2024-03-02T10:31:57;2.41;;;1.98;;
84866;SDS011;75123;51.788;4.654;2024-03-02T10:34:24;2.72;;;2.18;;
84866;SDS011;75123;51.788;4.654;2024-03-02T10:36:49;2.55;;;2.02;;
84866;SDS011;75123;51.788;4.654;2024-03-02T10:39:15;2.36;;;1.87;;
84866;SDS011;75123;51.788;4.654;2024-03-02T10:41:40;2.21;;;1.77;;
84866;SDS011;75123;51.788;4.654;2024-03-02T10:44:07;2.14;;;1.68;;
84866;SDS011;75123;51.788;4.654;2024-03-02T10:46:34;2.04;;;1.59;;
84866;SDS011;75123;51.788;4.654;2024-03-02T10:49:02;2.47;;;1.98;;
84866;SDS011;75123;51.788;4.654;2024-03-02T10:51:29;2.46;;;1.97;;
84866;SDS011;75123;51.788;4.654;2024-03-02T10:54:01;1.98;;;1.59;;
84866;SDS011;75123;51.788;4.654;2024-03-02T10:59:26;2.58;;;1.99;;
84866;SDS011;75123;51.788;4.654;2024-03-02T11:01:59;2.51;;;1.91;;
84866;SDS011;75123;51.788;4.654;2024-03-02T11:04:26;2.37;;;1.79;;
84866;SDS011;75123;51.788;4.654;2024-03-02T11:06:54;2.73;;;2.04;;
84866;SDS011;75123;51.788;4.654;2024-03-02T11:09:33;2.27;;;1.71;;
84866;SDS011;75123;51.788;4.654;2024-03-02T11:14:30;2.31;;;1.77;;
84866;SDS011;75123;51.788;4.654;2024-03-02T11:17:00;2.26;;;1.79;;
84866;SDS011;75123;51.788;4.654;2024-03-02T11:19:27;1.90;;;1.51;;
84866;SDS011;75123;51.788;4.654;2024-03-02T11:21:54;2.30;;;1.83;;
84866;SDS011;75123;51.788;4.654;2024-03-02T11:27:04;2.11;;;1.67;;
84866;SDS011;75123;51.788;4.654;2024-03-02T11:32:00;1.80;;;1.44;;
84866;SDS011;75123;51.788;4.654;2024-03-02T11:34:33;1.85;;;1.46;;
84866;SDS011;75123;51.788;4.654;2024-03-02T11:37:03;2.04;;;1.61;;
84866;SDS011;75123;51.788;4.654;2024-03-02T11:39:29;2.25;;;1.78;;
84866;SDS011;75123;51.788;4.654;2024-03-02T11:41:58;1.89;;;1.49;;
84866;SDS011;75123;51.788;4.654;2024-03-02T11:44:25;1.97;;;1.57;;
84866;SDS011;75123;51.788;4.654;2024-03-02T11:46:52;2.25;;;1.80;;
84866;SDS011;75123;51.788;4.654;2024-03-02T11:49:37;2.32;;;1.89;;
84866;SDS011;75123;51.788;4.654;2024-03-02T11:52:08;2.01;;;1.63;;
84866;SDS011;75123;51.788;4.654;2024-03-02T11:54:34;2.34;;;1.88;;
84866;SDS011;75123;51.788;4.654;2024-03-02T11:57:04;2.20;;;1.73;;
84866;SDS011;75123;51.788;4.654;2024-03-02T11:59:30;2.11;;;1.62;;
84866;SDS011;75123;51.788;4.654;2024-03-02T12:01:56;2.25;;;1.72;;
84866;SDS011;75123;51.788;4.654;2024-03-02T12:04:23;2.46;;;1.84;;
84866;SDS011;75123;51.788;4.654;2024-03-02T12:06:54;2.65;;;1.95;;
84866;SDS011;75123;51.788;4.654;2024-03-02T12:09:29;2.42;;;1.80;;
84866;SDS011;75123;51.788;4.654;2024-03-02T12:12:07;2.97;;;2.18;;
84866;SDS011;75123;51.788;4.654;2024-03-02T12:14:35;2.28;;;1.65;;
84866;SDS011;75123;51.788;4.654;2024-03-02T12:17:02;2.31;;;1.67;;
84866;SDS011;75123;51.788;4.654;2024-03-02T12:19:28;2.76;;;2.05;;
84866;SDS011;75123;51.788;4.654;2024-03-02T12:21:55;2.89;;;2.19;;
84866;SDS011;75123;51.788;4.654;2024-03-02T12:24:21;2.45;;;1.82;;
84866;SDS011;75123;51.788;4.654;2024-03-02T12:26:48;2.39;;;1.78;;
84866;SDS011;75123;51.788;4.654;2024-03-02T12:29:15;2.30;;;1.75;;
84866;SDS011;75123;51.788;4.654;2024-03-02T12:31:40;2.28;;;1.74;;
84866;SDS011;75123;51.788;4.654;2024-03-02T12:34:08;2.28;;;1.74;;
84866;SDS011;75123;51.788;4.654;2024-03-02T12:36:38;2.32;;;1.78;;
84866;SDS011;75123;51.788;4.654;2024-03-02T12:39:04;2.27;;;1.74;;
84866;SDS011;75123;51.788;4.654;2024-03-02T12:41:29;2.09;;;1.59;;
84866;SDS011;75123;51.788;4.654;2024-03-02T12:43:55;2.20;;;1.66;;
84866;SDS011;75123;51.788;4.654;2024-03-02T12:46:20;2.69;;;2.00;;
84866;SDS011;75123;51.788;4.654;2024-03-02T12:48:46;2.61;;;1.92;;
84866;SDS011;75123;51.788;4.654;2024-03-02T12:51:11;2.47;;;1.80;;
84866;SDS011;75123;51.788;4.654;2024-03-02T12:53:37;2.92;;;2.14;;
84866;SDS011;75123;51.788;4.654;2024-03-02T12:56:02;2.47;;;1.83;;
84866;SDS011;75123;51.788;4.654;2024-03-02T12:58:29;2.39;;;1.78;;
84866;SDS011;75123;51.788;4.654;2024-03-02T13:01:05;2.47;;;1.82;;
84866;SDS011;75123;51.788;4.654;2024-03-02T13:03:34;2.51;;;1.84;;
84866;SDS011;75123;51.788;4.654;2024-03-02T13:06:01;2.37;;;1.74;;
84866;SDS011;75123;51.788;4.654;2024-03-02T13:08:26;2.48;;;1.84;;
84866;SDS011;75123;51.788;4.654;2024-03-02T13:10:52;2.52;;;1.88;;
84866;SDS011;75123;51.788;4.654;2024-03-02T13:13:17;2.51;;;1.88;;
84866;SDS011;75123;51.788;4.654;2024-03-02T13:15:43;2.40;;;1.79;;
84866;SDS011;75123;51.788;4.654;2024-03-02T13:18:10;2.38;;;1.76;;
84866;SDS011;75123;51.788;4.654;2024-03-02T13:20:36;2.83;;;2.08;;
84866;SDS011;75123;51.788;4.654;2024-03-02T13:23:02;2.58;;;1.93;;
84866;SDS011;75123;51.788;4.654;2024-03-02T13:25:28;2.56;;;1.93;;
84866;SDS011;75123;51.788;4.654;2024-03-02T13:27:53;2.30;;;1.72;;
84866;SDS011;75123;51.788;4.654;2024-03-02T13:30:19;2.60;;;1.94;;
84866;SDS011;75123;51.788;4.654;2024-03-02T13:32:44;2.44;;;1.80;;
84866;SDS011;75123;51.788;4.654;2024-03-02T13:35:10;2.45;;;1.80;;
84866;SDS011;75123;51.788;4.654;2024-03-02T13:37:36;2.70;;;1.99;;
84866;SDS011;75123;51.788;4.654;2024-03-02T13:40:02;2.31;;;1.72;;
84866;SDS011;75123;51.788;4.654;2024-03-02T13:42:29;2.39;;;1.80;;
84866;SDS011;75123;51.788;4.654;2024-03-02T13:44:54;2.15;;;1.64;;
84866;SDS011;75123;51.788;4.654;2024-03-02T13:47:20;2.28;;;1.70;;
84866;SDS011;75123;51.788;4.654;2024-03-02T13:49:46;2.18;;;1.63;;
84866;SDS011;75123;51.788;4.654;2024-03-02T13:52:13;2.60;;;1.91;;
84866;SDS011;75123;51.788;4.654;2024-03-02T13:54:40;2.09;;;1.59;;
84866;SDS011;75123;51.788;4.654;2024-03-02T13:57:07;2.43;;;1.83;;
84866;SDS011;75123;51.788;4.654;2024-03-02T13:59:33;2.70;;;2.01;;
84866;SDS011;75123;51.788;4.654;2024-03-02T14:02:00;2.22;;;1.67;;
84866;SDS011;75123;51.788;4.654;2024-03-02T14:04:27;2.31;;;1.72;;
84866;SDS011;75123;51.788;4.654;2024-03-02T14:06:52;2.55;;;1.89;;
84866;SDS011;75123;51.788;4.654;2024-03-02T14:09:18;2.58;;;1.92;;
84866;SDS011;75123;51.788;4.654;2024-03-02T14:11:45;2.19;;;1.63;;
84866;SDS011;75123;51.788;4.654;2024-03-02T14:14:11;2.82;;;2.16;;
84866;SDS011;75123;51.788;4.654;2024-03-02T14:16:36;2.29;;;1.77;;
84866;SDS011;75123;51.788;4.654;2024-03-02T14:19:02;2.35;;;1.81;;
84866;SDS011;75123;51.788;4.654;2024-03-02T14:21:29;2.18;;;1.67;;
84866;SDS011;75123;51.788;4.654;2024-03-02T14:23:55;2.38;;;1.80;;
84866;SDS011;75123;51.788;4.654;2024-03-02T14:26:21;2.40;;;1.82;;
84866;SDS011;75123;51.788;4.654;2024-03-02T14:28:46;2.55;;;1.96;;
84866;SDS011;75123;51.788;4.654;2024-03-02T14:31:12;2.08;;;1.60;;
84866;SDS011;75123;51.788;4.654;2024-03-02T14:33:38;2.21;;;1.71;;
84866;SDS011;75123;51.788;4.654;2024-03-02T14:36:03;1.97;;;1.52;;
84866;SDS011;75123;51.788;4.654;2024-03-02T14:38:29;2.52;;;1.99;;
84866;SDS011;75123;51.788;4.654;2024-03-02T14:40:55;2.59;;;2.04;;
84866;SDS011;75123;51.788;4.654;2024-03-02T14:43:21;2.82;;;2.25;;
84866;SDS011;75123;51.788;4.654;2024-03-02T14:45:47;2.37;;;1.91;;
84866;SDS011;75123;51.788;4.654;2024-03-02T14:48:13;2.37;;;1.89;;
84866;SDS011;75123;51.788;4.654;2024-03-02T14:50:39;1.99;;;1.57;;
84866;SDS011;75123;51.788;4.654;2024-03-02T14:53:04;1.93;;;1.50;;
84866;SDS011;75123;51.788;4.654;2024-03-02T14:55:32;2.33;;;1.83;;
84866;SDS011;75123;51.788;4.654;2024-03-02T14:57:59;2.29;;;1.79;;
84866;SDS011;75123;51.788;4.654;2024-03-02T15:00:25;2.45;;;1.91;;